createdAt,value
2023-01-22T00:01:19.669Z,98566.25
2023-01-22T00:03:49.401Z,98567.44
2023-01-22T00:06:17.277Z,98558.25
2023-01-22T00:08:44.609Z,98560.34
2023-01-22T00:11:12.363Z,98573.44
2023-01-22T00:13:40.169Z,98566.25
2023-01-22T00:16:10.171Z,98567.56
2023-01-22T00:18:37.460Z,98579.56
2023-01-22T00:21:05.139Z,98578.91
2023-01-22T00:23:33.311Z,98579.75
2023-01-22T00:26:06.354Z,98586.53
2023-01-22T00:28:34.189Z,98582.47
2023-01-22T00:31:04.513Z,98588.78
2023-01-22T00:33:32.906Z,98590.63
2023-01-22T00:36:09.294Z,98590.50
2023-01-22T00:38:36.832Z,98592.16
2023-01-22T00:41:07.476Z,98589.78
2023-01-22T00:43:38.784Z,98592.94
2023-01-22T00:46:08.986Z,98593.88
2023-01-22T00:48:37.117Z,98596.38
2023-01-22T00:51:05.523Z,98602.31
2023-01-22T00:53:33.100Z,98603.50
2023-01-22T00:56:03.471Z,98601.91
2023-01-22T00:58:31.084Z,98607.69
2023-01-22T01:00:58.871Z,98603.91
2023-01-22T01:03:32.500Z,98601.66
2023-01-22T01:06:18.394Z,98608.75
2023-01-22T01:08:48.467Z,98613.16
2023-01-22T01:11:25.297Z,98607.84
2023-01-22T01:13:53.465Z,98611.66
2023-01-22T01:16:29.826Z,98615.97
2023-01-22T01:19:07.952Z,98612.66
2023-01-22T01:21:36.517Z,98597.78
2023-01-22T01:24:04.792Z,98600.44
2023-01-22T01:26:33.587Z,98603.16
2023-01-22T01:29:04.940Z,98599.78
2023-01-22T01:31:32.267Z,98600.78
2023-01-22T01:34:00.114Z,98593.84
2023-01-22T01:36:47.269Z,98593.59
2023-01-22T01:39:15.437Z,98599.25
2023-01-22T01:41:42.660Z,98599.44
2023-01-22T01:44:19.827Z,98592.31
2023-01-22T01:46:56.338Z,98604.28
2023-01-22T01:49:51.382Z,98606.41
2023-01-22T01:52:20.697Z,98611.31
2023-01-22T01:54:56.806Z,98618.06
2023-01-22T01:57:30.555Z,98619.84
2023-01-22T02:00:00.301Z,98619.00
2023-01-22T02:02:27.606Z,98625.84
2023-01-22T02:04:56.577Z,98623.69
2023-01-22T02:07:23.940Z,98628.06
2023-01-22T02:09:51.572Z,98625.16
2023-01-22T02:12:18.930Z,98636.00
2023-01-22T02:14:48.841Z,98638.63
2023-01-22T02:17:21.403Z,98637.00
2023-01-22T02:19:49.174Z,98650.50
2023-01-22T02:22:26.179Z,98647.38
2023-01-22T02:24:53.719Z,98645.84
2023-01-22T02:27:21.502Z,98654.19
2023-01-22T02:29:49.524Z,98646.00
2023-01-22T02:32:16.987Z,98653.88
2023-01-22T02:34:44.871Z,98648.28
2023-01-22T02:37:12.602Z,98647.63
2023-01-22T02:39:40.348Z,98653.88
2023-01-22T02:42:09.019Z,98656.28
2023-01-22T02:44:36.747Z,98650.34
2023-01-22T02:47:04.377Z,98653.41
2023-01-22T02:49:32.154Z,98651.84
2023-01-22T02:51:59.446Z,98651.22
2023-01-22T02:54:27.130Z,98650.47
2023-01-22T02:56:54.463Z,98646.66
2023-01-22T02:59:22.166Z,98637.31
2023-01-22T03:01:49.601Z,98642.47
2023-01-22T03:04:17.256Z,98634.53
2023-01-22T03:06:46.695Z,98643.72
2023-01-22T03:09:17.613Z,98638.69
2023-01-22T03:11:47.184Z,98652.28
2023-01-22T03:14:34.050Z,98653.19
2023-01-22T03:17:20.490Z,98646.22
2023-01-22T03:20:06.893Z,98650.16
2023-01-22T03:22:34.301Z,98646.44
2023-01-22T03:25:02.740Z,98644.25
2023-01-22T03:27:31.947Z,98646.78
2023-01-22T03:29:59.525Z,98657.13
2023-01-22T03:32:26.968Z,98659.38
2023-01-22T03:34:54.517Z,98653.47
2023-01-22T03:37:21.971Z,98655.16
2023-01-22T03:39:49.538Z,98657.59
2023-01-22T03:42:16.802Z,98659.47
2023-01-22T03:44:44.684Z,98657.88
2023-01-22T03:47:11.925Z,98657.53
2023-01-22T03:49:39.431Z,98650.06
2023-01-22T03:52:06.728Z,98653.56
2023-01-22T03:54:34.631Z,98656.38
2023-01-22T03:57:01.890Z,98657.84
2023-01-22T03:59:29.447Z,98657.59
2023-01-22T04:01:56.763Z,98660.44
2023-01-22T04:04:24.485Z,98662.88
2023-01-22T04:06:51.824Z,98666.81
2023-01-22T04:09:19.471Z,98660.97
2023-01-22T04:11:46.865Z,98658.84
2023-01-22T04:14:14.469Z,98649.31
2023-01-22T04:16:41.840Z,98658.00
2023-01-22T04:19:10.463Z,98646.44
2023-01-22T04:21:37.934Z,98651.09
2023-01-22T04:24:05.958Z,98647.47
2023-01-22T04:26:33.238Z,98656.78
2023-01-22T04:29:00.851Z,98651.00
2023-01-22T04:31:28.273Z,98658.75
2023-01-22T04:33:55.992Z,98655.06
2023-01-22T04:36:23.475Z,98668.69
2023-01-22T04:38:51.051Z,98665.88
2023-01-22T04:41:18.367Z,98662.88
2023-01-22T04:43:46.039Z,98667.19
2023-01-22T04:46:13.385Z,98664.56
2023-01-22T04:48:40.966Z,98663.63
2023-01-22T04:51:08.389Z,98669.25
2023-01-22T04:53:35.944Z,98666.53
2023-01-22T04:56:03.482Z,98660.44
2023-01-22T04:58:31.112Z,98655.25
2023-01-22T05:00:58.901Z,98660.69
2023-01-22T05:03:26.666Z,98655.13
2023-01-22T05:05:53.927Z,98661.28
2023-01-22T05:08:21.485Z,98671.59
2023-01-22T05:10:48.791Z,98672.44
2023-01-22T05:13:16.406Z,98675.06
2023-01-22T05:15:43.807Z,98670.81
2023-01-22T05:18:11.380Z,98673.47
2023-01-22T05:20:39.089Z,98670.22
2023-01-22T05:23:06.690Z,98682.13
2023-01-22T05:25:34.012Z,98685.69
2023-01-22T05:28:01.910Z,98686.53
2023-01-22T05:30:29.251Z,98682.13
2023-01-22T05:32:57.778Z,98680.88
2023-01-22T05:35:25.283Z,98684.66
2023-01-22T05:37:52.916Z,98688.16
2023-01-22T05:40:20.613Z,98688.25
2023-01-22T05:42:48.436Z,98693.88
2023-01-22T05:45:15.784Z,98690.38
2023-01-22T05:47:43.339Z,98687.06
2023-01-22T05:50:11.161Z,98695.34
2023-01-22T05:52:38.735Z,98700.34
2023-01-22T05:55:06.702Z,98696.94
2023-01-22T05:57:35.692Z,98701.25
2023-01-22T06:00:05.210Z,98710.00
2023-01-22T06:02:32.911Z,98711.81
2023-01-22T06:05:00.297Z,98713.38
2023-01-22T06:07:30.952Z,98718.75
2023-01-22T06:09:58.251Z,98728.69
2023-01-22T06:12:25.941Z,98736.44
2023-01-22T06:14:56.101Z,98736.28
2023-01-22T06:17:24.311Z,98728.66
2023-01-22T06:19:51.624Z,98720.53
2023-01-22T06:22:19.340Z,98721.78
2023-01-22T06:24:46.669Z,98721.06
2023-01-22T06:27:14.271Z,98722.31
2023-01-22T06:29:41.511Z,98730.22
2023-01-22T06:32:09.201Z,98721.50
2023-01-22T06:34:37.655Z,98727.72
2023-01-22T06:37:05.780Z,98737.63
2023-01-22T06:39:33.107Z,98744.47
2023-01-22T06:42:00.722Z,98732.81
2023-01-22T06:44:27.979Z,98742.47
2023-01-22T06:46:55.594Z,98733.31
2023-01-22T06:49:22.841Z,98731.88
2023-01-22T06:51:50.434Z,98727.53
2023-01-22T06:54:17.702Z,98731.66
2023-01-22T06:56:45.313Z,98738.34
2023-01-22T06:59:12.536Z,98744.56
2023-01-22T07:01:40.255Z,98738.56
2023-01-22T07:04:07.579Z,98739.28
2023-01-22T07:06:35.186Z,98743.94
2023-01-22T07:09:02.524Z,98746.19
2023-01-22T07:11:30.021Z,98732.78
2023-01-22T07:13:57.335Z,98730.53
2023-01-22T07:16:24.996Z,98734.69
2023-01-22T07:18:52.271Z,98750.56
2023-01-22T07:21:19.805Z,98743.81
2023-01-22T07:23:47.094Z,98748.06
2023-01-22T07:26:16.034Z,98766.59
2023-01-22T07:28:44.980Z,98765.63
2023-01-22T07:31:14.014Z,98781.25
2023-01-22T07:33:42.255Z,98774.94
2023-01-22T07:36:10.015Z,98781.25
2023-01-22T07:38:37.253Z,98783.59
2023-01-22T07:41:17.005Z,98788.63
2023-01-22T07:43:49.482Z,98800.53
2023-01-22T07:46:17.181Z,98780.00
2023-01-22T07:48:46.003Z,98777.25
2023-01-22T07:51:13.705Z,98780.66
2023-01-22T07:53:42.816Z,98766.81
2023-01-22T07:56:10.641Z,98770.31
2023-01-22T07:58:39.465Z,98773.91
2023-01-22T08:01:08.467Z,98768.63
2023-01-22T08:03:37.872Z,98771.00
2023-01-22T08:06:17.493Z,98788.59
2023-01-22T08:08:44.740Z,98788.34
2023-01-22T08:11:13.645Z,98794.50
2023-01-22T08:13:41.358Z,98795.91
2023-01-22T08:16:09.569Z,98806.50
2023-01-22T08:18:38.422Z,98806.13
2023-01-22T08:21:06.509Z,98801.38
2023-01-22T08:23:33.801Z,98799.59
2023-01-22T08:26:04.161Z,98807.69
2023-01-22T08:28:32.046Z,98798.19
2023-01-22T08:31:02.761Z,98790.31
2023-01-22T08:33:33.957Z,98789.34
2023-01-22T08:36:01.570Z,98794.66
2023-01-22T08:38:28.941Z,98796.78
2023-01-22T08:40:56.559Z,98793.03
2023-01-22T08:43:24.033Z,98784.16
2023-01-22T08:45:51.874Z,98790.06
2023-01-22T08:48:19.225Z,98784.84
2023-01-22T08:50:46.980Z,98786.16
2023-01-22T08:53:14.438Z,98795.38
2023-01-22T08:55:42.106Z,98795.47
2023-01-22T08:58:10.135Z,98805.59
2023-01-22T09:00:37.828Z,98802.28
2023-01-22T09:03:05.113Z,98806.75
2023-01-22T09:05:32.732Z,98807.47
2023-01-22T09:08:00.119Z,98809.91
2023-01-22T09:10:27.775Z,98802.41
2023-01-22T09:12:55.180Z,98808.66
2023-01-22T09:15:22.845Z,98809.78
2023-01-22T09:17:50.183Z,98809.19
2023-01-22T09:20:18.279Z,98817.47
2023-01-22T09:22:47.204Z,98810.94
2023-01-22T09:25:16.147Z,98800.75
2023-01-22T09:27:43.912Z,98798.69
2023-01-22T09:30:14.495Z,98796.69
2023-01-22T09:32:42.034Z,98796.53
2023-01-22T09:35:10.251Z,98797.22
2023-01-22T09:37:37.550Z,98802.13
2023-01-22T09:40:05.859Z,98791.75
2023-01-22T09:42:40.514Z,98796.63
2023-01-22T09:45:13.999Z,98804.59
2023-01-22T09:47:49.369Z,98803.03
2023-01-22T09:50:23.510Z,98801.84
2023-01-22T09:52:55.270Z,98794.81
2023-01-22T09:55:28.519Z,98793.13
2023-01-22T09:58:00.492Z,98794.03
2023-01-22T10:00:41.447Z,98799.97
2023-01-22T10:03:36.829Z,98794.63
2023-01-22T10:06:15.087Z,98798.06
2023-01-22T10:09:16.326Z,98796.50
2023-01-22T10:11:52.451Z,98798.34
2023-01-22T10:14:23.752Z,98804.09
2023-01-22T10:16:52.279Z,98814.78
2023-01-22T10:19:41.787Z,98815.75
2023-01-22T10:22:22.485Z,98812.81
2023-01-22T10:24:51.052Z,98811.56
2023-01-22T10:27:40.026Z,98803.78
2023-01-22T10:30:24.307Z,98806.53
2023-01-22T10:33:06.914Z,98811.69
2023-01-22T10:35:47.328Z,98808.44
2023-01-22T10:38:35.165Z,98813.91
2023-01-22T10:41:04.554Z,98818.56
2023-01-22T10:43:38.580Z,98818.00
2023-01-22T10:46:17.853Z,98815.19
2023-01-22T10:48:45.486Z,98816.16
2023-01-22T10:51:22.448Z,98800.63
2023-01-22T10:53:56.985Z,98803.84
2023-01-22T10:56:38.672Z,98801.09
2023-01-22T10:59:29.727Z,98804.38
2023-01-22T11:02:12.041Z,98810.94
2023-01-22T11:04:40.015Z,98799.75
2023-01-22T11:07:20.954Z,98802.38
2023-01-22T11:10:17.467Z,98813.59
2023-01-22T11:12:52.352Z,98813.22
2023-01-22T11:15:29.655Z,98808.84
2023-01-22T11:18:02.706Z,98815.22
2023-01-22T11:20:55.279Z,98824.22
2023-01-22T11:23:31.338Z,98813.66
2023-01-22T11:26:27.201Z,98813.22
2023-01-22T11:29:30.590Z,98811.91
2023-01-22T11:32:32.752Z,98818.97
2023-01-22T11:35:27.884Z,98815.59
2023-01-22T11:38:04.976Z,98822.22
2023-01-22T11:40:36.401Z,98828.47
2023-01-22T11:43:33.185Z,98816.50
2023-01-22T11:46:17.576Z,98814.66
2023-01-22T11:49:08.369Z,98810.88
2023-01-22T11:52:02.710Z,98806.63
2023-01-22T11:54:53.510Z,98814.44
2023-01-22T11:57:47.066Z,98809.53
2023-01-22T12:00:35.247Z,98813.28
2023-01-22T12:03:37.840Z,98815.69
2023-01-22T12:06:13.000Z,98807.00
2023-01-22T12:08:58.360Z,98820.53
2023-01-22T12:11:59.939Z,98818.81
2023-01-22T12:14:48.107Z,98814.69
2023-01-22T12:17:54.891Z,98830.03
2023-01-22T12:21:07.826Z,98827.34
2023-01-22T12:24:04.085Z,98829.28
2023-01-22T12:26:38.112Z,98829.81
2023-01-22T12:29:18.611Z,98825.22
2023-01-22T12:32:09.328Z,98827.91
2023-01-22T12:35:05.590Z,98837.78
2023-01-22T12:37:49.872Z,98833.47
2023-01-22T12:40:35.557Z,98834.31
2023-01-22T12:43:08.198Z,98825.75
2023-01-22T12:45:45.503Z,98832.00
2023-01-22T12:48:42.978Z,98836.63
2023-01-22T12:51:46.262Z,98847.84
2023-01-22T12:54:35.453Z,98852.50
2023-01-22T12:57:14.875Z,98850.97
2023-01-22T12:59:50.913Z,98856.44
2023-01-22T13:02:38.875Z,98860.00
2023-01-22T13:05:20.260Z,98858.34
2023-01-22T13:07:50.203Z,98850.44
2023-01-22T13:10:23.238Z,98856.91
2023-01-22T13:13:17.331Z,98851.88
2023-01-22T13:15:53.652Z,98855.22
2023-01-22T13:18:28.289Z,98850.38
2023-01-22T13:21:08.653Z,98855.28
2023-01-22T13:23:43.719Z,98858.22
2023-01-22T13:26:24.905Z,98847.91
2023-01-22T13:29:04.352Z,98860.72
2023-01-22T13:31:33.016Z,98857.06
2023-01-22T13:34:09.076Z,98863.50
2023-01-22T13:36:46.406Z,98864.50
2023-01-22T13:39:33.034Z,98876.22
2023-01-22T13:42:05.166Z,98875.38
2023-01-22T13:44:43.488Z,98883.13
2023-01-22T13:47:40.203Z,98892.13
2023-01-22T13:50:24.537Z,98886.78
2023-01-22T13:52:52.186Z,98889.81
2023-01-22T13:55:25.016Z,98900.78
2023-01-22T13:57:56.877Z,98903.63
2023-01-22T14:00:36.930Z,98901.84
2023-01-22T14:03:23.116Z,98905.16
2023-01-22T14:05:50.803Z,98906.59
2023-01-22T14:08:18.901Z,98912.97
2023-01-22T14:10:58.439Z,98912.59
2023-01-22T14:13:26.124Z,98914.28
2023-01-22T14:16:00.286Z,98914.97
2023-01-22T14:18:31.066Z,98922.03
2023-01-22T14:20:58.985Z,98920.25
2023-01-22T14:23:26.363Z,98926.03
2023-01-22T14:25:55.748Z,98912.91
2023-01-22T14:28:25.208Z,98918.00
2023-01-22T14:30:53.154Z,98928.41
2023-01-22T14:33:26.243Z,98926.25
2023-01-22T14:35:54.713Z,98939.34
2023-01-22T14:38:22.793Z,98932.78
2023-01-22T14:40:50.674Z,98938.88
2023-01-22T14:43:18.749Z,98939.00
2023-01-22T14:45:47.194Z,98944.38
2023-01-22T14:48:18.351Z,98938.31
2023-01-22T14:50:46.132Z,98937.44
2023-01-22T14:53:15.594Z,98946.25
2023-01-22T14:55:43.848Z,98945.47
2023-01-22T14:58:11.751Z,98945.69
2023-01-22T15:00:39.999Z,98948.19
2023-01-22T15:03:07.422Z,98947.44
2023-01-22T15:05:35.830Z,98956.03
2023-01-22T15:08:03.477Z,98955.13
2023-01-22T15:10:31.695Z,98960.88
2023-01-22T15:12:59.403Z,98974.06
2023-01-22T15:15:28.506Z,98964.59
2023-01-22T15:17:57.777Z,98971.75
2023-01-22T15:20:26.486Z,98975.03
2023-01-22T15:22:53.752Z,98976.53
2023-01-22T15:25:21.368Z,98986.16
2023-01-22T15:27:48.810Z,98984.50
2023-01-22T15:30:16.949Z,98983.75
2023-01-22T15:32:44.346Z,98991.25
2023-01-22T15:35:12.013Z,98989.72
2023-01-22T15:37:39.379Z,98989.59
2023-01-22T15:40:09.823Z,98987.06
2023-01-22T15:42:37.493Z,98984.75
2023-01-22T15:45:06.957Z,98987.47
2023-01-22T15:47:34.475Z,98990.00
2023-01-22T15:50:02.041Z,98995.25
2023-01-22T15:52:29.611Z,99000.28
2023-01-22T15:54:57.933Z,99001.78
2023-01-22T15:57:25.249Z,99000.97
2023-01-22T15:59:52.946Z,99006.31
2023-01-22T16:02:20.331Z,99002.44
2023-01-22T16:04:48.047Z,99013.09
2023-01-22T16:07:15.411Z,99013.31
2023-01-22T16:09:43.303Z,99015.69
2023-01-22T16:12:10.682Z,99023.19
2023-01-22T16:14:38.288Z,99030.22
2023-01-22T16:17:06.060Z,99027.59
2023-01-22T16:19:34.692Z,99034.53
2023-01-22T16:22:02.170Z,99035.97
2023-01-22T16:24:29.874Z,99037.66
2023-01-22T16:26:57.176Z,99029.81
2023-01-22T16:29:24.773Z,99036.88
2023-01-22T16:31:52.303Z,99043.50
2023-01-22T16:34:21.686Z,99047.09
2023-01-22T16:36:49.312Z,99056.47
2023-01-22T16:39:22.552Z,99059.69
2023-01-22T16:41:51.792Z,99060.50
2023-01-22T16:44:27.402Z,99057.81
2023-01-22T16:46:59.930Z,99057.31
2023-01-22T16:49:33.705Z,99062.16
2023-01-22T16:52:20.642Z,99060.53
2023-01-22T16:54:50.065Z,99062.53
2023-01-22T16:57:19.385Z,99066.75
2023-01-22T16:59:46.990Z,99067.47
2023-01-22T17:02:16.857Z,99074.38
2023-01-22T17:04:45.302Z,99085.50
2023-01-22T17:07:27.423Z,99084.66
2023-01-22T17:09:59.775Z,99086.25
2023-01-22T17:12:27.484Z,99094.94
2023-01-22T17:14:55.082Z,99099.03
2023-01-22T17:17:22.404Z,99100.28
2023-01-22T17:19:49.959Z,99098.28
2023-01-22T17:22:17.227Z,99097.56
2023-01-22T17:24:44.817Z,99098.69
2023-01-22T17:27:18.272Z,99097.97
2023-01-22T17:29:45.911Z,99095.72
2023-01-22T17:32:13.240Z,99100.91
2023-01-22T17:34:42.024Z,99107.72
2023-01-22T17:37:11.230Z,99106.81
2023-01-22T17:39:39.758Z,99104.41
2023-01-22T17:42:07.124Z,99109.53
2023-01-22T17:44:35.013Z,99120.56
2023-01-22T17:47:03.503Z,99126.72
2023-01-22T17:49:33.401Z,99129.31
2023-01-22T17:52:00.886Z,99137.19
2023-01-22T17:54:28.732Z,99140.75
2023-01-22T17:56:56.061Z,99144.75
2023-01-22T17:59:25.521Z,99142.97
2023-01-22T18:01:53.058Z,99145.47
2023-01-22T18:04:20.684Z,99151.34
2023-01-22T18:06:50.191Z,99155.56
2023-01-22T18:09:18.326Z,99162.63
2023-01-22T18:11:45.712Z,99161.03
2023-01-22T18:14:21.724Z,99165.97
2023-01-22T18:16:50.623Z,99158.44
2023-01-22T18:19:18.910Z,99162.19
2023-01-22T18:21:46.316Z,99172.56
2023-01-22T18:24:14.346Z,99174.22
2023-01-22T18:26:42.419Z,99177.56
2023-01-22T18:29:11.589Z,99179.28
2023-01-22T18:31:40.055Z,99177.34
2023-01-22T18:34:15.367Z,99182.19
2023-01-22T18:36:44.161Z,99170.47
2023-01-22T18:39:16.554Z,99175.66
2023-01-22T18:41:45.249Z,99176.56
2023-01-22T18:44:16.328Z,99185.22
2023-01-22T18:46:47.563Z,99182.44
2023-01-22T18:49:18.925Z,99182.56
2023-01-22T18:51:47.215Z,99189.63
2023-01-22T18:54:16.109Z,99197.16
2023-01-22T18:56:43.578Z,99193.56
2023-01-22T18:59:13.100Z,99197.91
2023-01-22T19:01:41.181Z,99207.28
2023-01-22T19:04:12.147Z,99206.25
2023-01-22T19:06:39.688Z,99213.19
2023-01-22T19:09:14.263Z,99202.72
2023-01-22T19:11:47.152Z,99191.59
2023-01-22T19:14:18.832Z,99201.97
2023-01-22T19:16:48.962Z,99207.38
2023-01-22T19:19:17.458Z,99210.75
2023-01-22T19:21:49.239Z,99208.03
2023-01-22T19:24:22.408Z,99210.81
2023-01-22T19:26:51.477Z,99208.81
2023-01-22T19:29:19.414Z,99213.03
2023-01-22T19:31:53.948Z,99216.69
2023-01-22T19:34:23.917Z,99215.13
2023-01-22T19:36:55.959Z,99212.50
2023-01-22T19:39:28.360Z,99207.28
2023-01-22T19:41:56.907Z,99206.19
2023-01-22T19:44:24.719Z,99207.84
2023-01-22T19:46:53.023Z,99207.34
2023-01-22T19:49:21.244Z,99210.75
2023-01-22T19:51:48.863Z,99217.63
2023-01-22T19:54:17.724Z,99217.41
2023-01-22T19:56:46.009Z,99215.69
2023-01-22T19:59:19.194Z,99218.31
2023-01-22T20:01:48.784Z,99209.47
2023-01-22T20:04:30.874Z,99213.63
2023-01-22T20:07:02.079Z,99219.59
2023-01-22T20:09:31.050Z,99220.69
2023-01-22T20:11:59.795Z,99232.75
2023-01-22T20:14:33.633Z,99230.81
2023-01-22T20:17:03.320Z,99235.94
2023-01-22T20:19:31.868Z,99245.41
2023-01-22T20:22:10.964Z,99250.53
2023-01-22T20:24:41.215Z,99249.44
2023-01-22T20:27:09.453Z,99253.69
2023-01-22T20:29:39.948Z,99254.69
2023-01-22T20:32:07.964Z,99257.41
2023-01-22T20:34:35.788Z,99264.81
2023-01-22T20:37:03.350Z,99254.56
2023-01-22T20:39:30.917Z,99258.03
2023-01-22T20:41:58.231Z,99257.13
2023-01-22T20:44:26.147Z,99267.19
2023-01-22T20:46:53.562Z,99262.28
2023-01-22T20:49:21.193Z,99270.19
2023-01-22T20:51:48.663Z,99264.34
2023-01-22T20:54:18.447Z,99269.72
2023-01-22T20:56:46.598Z,99272.28
2023-01-22T20:59:18.541Z,99269.72
2023-01-22T21:01:46.644Z,99260.19
2023-01-22T21:04:18.386Z,99270.72
2023-01-22T21:06:45.736Z,99271.66
2023-01-22T21:09:13.665Z,99266.38
2023-01-22T21:11:42.294Z,99272.28
2023-01-22T21:14:20.630Z,99280.69
2023-01-22T21:16:49.174Z,99279.75
2023-01-22T21:19:23.108Z,99276.28
2023-01-22T21:21:51.249Z,99281.53
2023-01-22T21:24:19.818Z,99282.63
2023-01-22T21:26:47.146Z,99287.84
2023-01-22T21:29:21.770Z,99294.72
2023-01-22T21:31:52.846Z,99301.66
2023-01-22T21:34:23.856Z,99309.25
2023-01-22T21:36:54.309Z,99311.78
2023-01-22T21:39:29.731Z,99303.06
2023-01-22T21:42:16.444Z,99302.34
2023-01-22T21:45:03.618Z,99319.72
2023-01-22T21:47:31.240Z,99333.47
2023-01-22T21:49:58.972Z,99333.47
2023-01-22T21:52:26.582Z,99332.34
2023-01-22T21:54:54.171Z,99341.59
2023-01-22T21:57:21.452Z,99341.69
2023-01-22T21:59:49.119Z,99344.22
2023-01-22T22:02:18.909Z,99353.47
2023-01-22T22:04:46.645Z,99348.34
2023-01-22T22:07:14.403Z,99354.97
2023-01-22T22:09:44.306Z,99356.66
2023-01-22T22:12:11.970Z,99362.81
2023-01-22T22:14:39.610Z,99352.59
2023-01-22T22:17:07.801Z,99360.06
2023-01-22T22:19:35.326Z,99364.31
2023-01-22T22:22:02.706Z,99367.63
2023-01-22T22:24:30.301Z,99377.91
2023-01-22T22:26:57.585Z,99375.34
2023-01-22T22:29:25.244Z,99358.88
2023-01-22T22:31:52.624Z,99361.31
2023-01-22T22:34:20.295Z,99358.63
2023-01-22T22:36:47.579Z,99353.34
2023-01-22T22:39:15.159Z,99348.22
2023-01-22T22:41:42.440Z,99359.66
2023-01-22T22:44:10.912Z,99353.91
2023-01-22T22:46:40.013Z,99362.69
2023-01-22T22:49:11.866Z,99351.63
2023-01-22T22:51:42.523Z,99358.03
2023-01-22T22:54:19.718Z,99356.13
2023-01-22T22:56:49.032Z,99358.50
2023-01-22T22:59:19.857Z,99354.91
2023-01-22T23:01:51.558Z,99358.66
2023-01-22T23:04:19.292Z,99363.03
2023-01-22T23:06:47.564Z,99365.63
2023-01-22T23:09:19.867Z,99372.44
2023-01-22T23:11:51.751Z,99365.47
2023-01-22T23:14:19.565Z,99364.72
2023-01-22T23:16:47.803Z,99368.31
2023-01-22T23:19:25.608Z,99366.63
2023-01-22T23:21:58.583Z,99381.19
2023-01-22T23:24:27.684Z,99374.88
2023-01-22T23:26:55.558Z,99374.00
2023-01-22T23:29:26.809Z,99374.88
2023-01-22T23:31:54.400Z,99377.22
2023-01-22T23:34:27.863Z,99377.94
2023-01-22T23:36:55.473Z,99380.34
2023-01-22T23:39:23.103Z,99379.41
2023-01-22T23:41:50.385Z,99383.69
2023-01-22T23:44:18.241Z,99383.03
2023-01-22T23:46:45.893Z,99388.84
2023-01-22T23:49:13.600Z,99388.94
2023-01-22T23:51:43.641Z,99393.41
2023-01-22T23:54:11.421Z,99400.56
2023-01-22T23:56:38.700Z,99406.72
2023-01-22T23:59:06.437Z,99408.63
